sensor_id;sensor_type;location;lat;lon;timestamp;P1;durP1;ratioP1;P2;durP2;ratioP2
42514;SDS011;28144;49.920;18.730;2024-02-23T00:01:04;4.50;;;2.38;;
42514;SDS011;28144;49.920;18.730;2024-02-23T00:03:49;4.27;;;2.37;;
42514;SDS011;28144;49.920;18.730;2024-02-23T00:06:15;6.20;;;2.80;;
42514;SDS011;28144;49.920;18.730;2024-02-23T00:08:41;6.22;;;3.63;;
42514;SDS011;28144;49.920;18.730;2024-02-23T00:11:07;5.10;;;2.57;;
42514;SDS011;28144;49.920;18.730;2024-02-23T00:13:33;7.38;;;2.67;;
42514;SDS011;28144;49.920;18.730;2024-02-23T00:15:59;7.13;;;2.80;;
42514;SDS011;28144;49.920;18.730;2024-02-23T00:18:25;4.10;;;2.40;;
42514;SDS011;28144;49.920;18.730;2024-02-23T00:20:51;4.40;;;2.67;;
42514;SDS011;28144;49.920;18.730;2024-02-23T00:23:17;6.90;;;2.83;;
42514;SDS011;28144;49.920;18.730;2024-02-23T00:25:44;3.47;;;2.23;;
42514;SDS011;28144;49.920;18.730;2024-02-23T00:28:11;6.10;;;2.78;;
42514;SDS011;28144;49.920;18.730;2024-02-23T00:30:36;5.03;;;2.80;;
42514;SDS011;28144;49.920;18.730;2024-02-23T00:33:02;6.07;;;2.53;;
42514;SDS011;28144;49.920;18.730;2024-02-23T00:35:28;6.28;;;3.22;;
42514;SDS011;28144;49.920;18.730;2024-02-23T00:37:55;4.20;;;2.13;;
42514;SDS011;28144;49.920;18.730;2024-02-23T00:40:21;5.13;;;2.88;;
42514;SDS011;28144;49.920;18.730;2024-02-23T00:42:49;5.97;;;2.87;;
42514;SDS011;28144;49.920;18.730;2024-02-23T00:45:14;4.83;;;2.70;;
42514;SDS011;28144;49.920;18.730;2024-02-23T00:47:42;4.82;;;3.03;;
42514;SDS011;28144;49.920;18.730;2024-02-23T00:50:08;3.20;;;1.80;;
42514;SDS011;28144;49.920;18.730;2024-02-23T00:52:36;3.37;;;1.83;;
42514;SDS011;28144;49.920;18.730;2024-02-23T00:55:02;6.30;;;2.43;;
42514;SDS011;28144;49.920;18.730;2024-02-23T00:57:28;4.25;;;2.17;;
42514;SDS011;28144;49.920;18.730;2024-02-23T00:59:58;4.07;;;1.63;;
42514;SDS011;28144;49.920;18.730;2024-02-23T01:02:24;3.67;;;1.80;;
42514;SDS011;28144;49.920;18.730;2024-02-23T01:04:50;5.63;;;2.20;;
42514;SDS011;28144;49.920;18.730;2024-02-23T01:07:16;6.85;;;1.95;;
42514;SDS011;28144;49.920;18.730;2024-02-23T01:09:42;2.97;;;1.80;;
42514;SDS011;28144;49.920;18.730;2024-02-23T01:12:08;3.55;;;2.08;;
42514;SDS011;28144;49.920;18.730;2024-02-23T01:14:34;4.70;;;2.20;;
42514;SDS011;28144;49.920;18.730;2024-02-23T01:17:00;2.55;;;1.80;;
42514;SDS011;28144;49.920;18.730;2024-02-23T01:19:26;4.07;;;1.97;;
42514;SDS011;28144;49.920;18.730;2024-02-23T01:21:52;3.95;;;1.50;;
42514;SDS011;28144;49.920;18.730;2024-02-23T01:24:27;4.83;;;1.80;;
42514;SDS011;28144;49.920;18.730;2024-02-23T01:26:55;3.87;;;1.73;;
42514;SDS011;28144;49.920;18.730;2024-02-23T01:29:22;2.72;;;1.52;;
42514;SDS011;28144;49.920;18.730;2024-02-23T01:31:48;4.72;;;3.08;;
42514;SDS011;28144;49.920;18.730;2024-02-23T01:34:14;1.60;;;1.50;;
42514;SDS011;28144;49.920;18.730;2024-02-23T01:36:40;3.15;;;1.83;;
42514;SDS011;28144;49.920;18.730;2024-02-23T01:39:06;6.13;;;1.97;;
42514;SDS011;28144;49.920;18.730;2024-02-23T01:43:59;4.43;;;2.00;;
42514;SDS011;28144;49.920;18.730;2024-02-23T01:46:25;4.07;;;1.75;;
42514;SDS011;28144;49.920;18.730;2024-02-23T01:48:51;2.55;;;1.60;;
42514;SDS011;28144;49.920;18.730;2024-02-23T01:51:17;3.00;;;1.83;;
42514;SDS011;28144;49.920;18.730;2024-02-23T01:53:43;2.03;;;1.37;;
42514;SDS011;28144;49.920;18.730;2024-02-23T01:56:10;4.50;;;2.45;;
42514;SDS011;28144;49.920;18.730;2024-02-23T01:58:37;2.83;;;1.80;;
42514;SDS011;28144;49.920;18.730;2024-02-23T02:01:03;4.80;;;2.08;;
42514;SDS011;28144;49.920;18.730;2024-02-23T02:03:29;3.00;;;1.88;;
42514;SDS011;28144;49.920;18.730;2024-02-23T02:05:56;2.58;;;1.90;;
42514;SDS011;28144;49.920;18.730;2024-02-23T02:08:25;2.77;;;1.57;;
42514;SDS011;28144;49.920;18.730;2024-02-23T02:13:17;3.77;;;1.73;;
42514;SDS011;28144;49.920;18.730;2024-02-23T02:15:43;2.55;;;1.73;;
42514;SDS011;28144;49.920;18.730;2024-02-23T02:18:09;4.27;;;1.77;;
42514;SDS011;28144;49.920;18.730;2024-02-23T02:20:36;2.92;;;1.90;;
42514;SDS011;28144;49.920;18.730;2024-02-23T02:23:02;3.17;;;2.08;;
42514;SDS011;28144;49.920;18.730;2024-02-23T02:27:54;3.10;;;1.88;;
42514;SDS011;28144;49.920;18.730;2024-02-23T02:30:21;1.58;;;1.30;;
42514;SDS011;28144;49.920;18.730;2024-02-23T02:32:46;3.80;;;1.60;;
42514;SDS011;28144;49.920;18.730;2024-02-23T02:35:12;2.20;;;1.30;;
42514;SDS011;28144;49.920;18.730;2024-02-23T02:37:38;4.67;;;1.63;;
42514;SDS011;28144;49.920;18.730;2024-02-23T02:40:05;4.80;;;1.63;;
42514;SDS011;28144;49.920;18.730;2024-02-23T02:42:32;5.00;;;1.50;;
42514;SDS011;28144;49.920;18.730;2024-02-23T02:44:58;3.20;;;1.57;;
42514;SDS011;28144;49.920;18.730;2024-02-23T02:47:24;2.07;;;1.43;;
42514;SDS011;28144;49.920;18.730;2024-02-23T02:49:51;3.05;;;1.70;;
42514;SDS011;28144;49.920;18.730;2024-02-23T02:52:16;3.67;;;1.40;;
42514;SDS011;28144;49.920;18.730;2024-02-23T02:54:43;2.05;;;1.23;;
42514;SDS011;28144;49.920;18.730;2024-02-23T02:57:08;4.33;;;1.63;;
42514;SDS011;28144;49.920;18.730;2024-02-23T02:59:35;3.40;;;1.23;;
42514;SDS011;28144;49.920;18.730;2024-02-23T03:02:01;1.67;;;1.30;;
42514;SDS011;28144;49.920;18.730;2024-02-23T03:04:27;5.63;;;2.07;;
42514;SDS011;28144;49.920;18.730;2024-02-23T03:06:52;8.40;;;3.70;;
42514;SDS011;28144;49.920;18.730;2024-02-23T03:09:18;4.40;;;2.67;;
42514;SDS011;28144;49.920;18.730;2024-02-23T03:11:44;2.77;;;1.40;;
42514;SDS011;28144;49.920;18.730;2024-02-23T03:14:10;3.13;;;1.27;;
42514;SDS011;28144;49.920;18.730;2024-02-23T03:16:35;1.73;;;1.13;;
42514;SDS011;28144;49.920;18.730;2024-02-23T03:19:03;3.80;;;1.80;;
42514;SDS011;28144;49.920;18.730;2024-02-23T03:21:29;1.63;;;1.20;;
42514;SDS011;28144;49.920;18.730;2024-02-23T03:23:55;2.78;;;1.33;;
42514;SDS011;28144;49.920;18.730;2024-02-23T03:26:21;1.27;;;1.10;;
42514;SDS011;28144;49.920;18.730;2024-02-23T03:28:47;2.22;;;1.48;;
42514;SDS011;28144;49.920;18.730;2024-02-23T03:31:14;1.55;;;1.10;;
42514;SDS011;28144;49.920;18.730;2024-02-23T03:33:40;2.13;;;1.37;;
42514;SDS011;28144;49.920;18.730;2024-02-23T03:36:05;1.90;;;1.37;;
42514;SDS011;28144;49.920;18.730;2024-02-23T03:38:31;3.28;;;2.13;;
42514;SDS011;28144;49.920;18.730;2024-02-23T03:40:59;1.73;;;1.37;;
42514;SDS011;28144;49.920;18.730;2024-02-23T03:43:25;2.05;;;1.40;;
42514;SDS011;28144;49.920;18.730;2024-02-23T03:45:51;2.20;;;1.30;;
42514;SDS011;28144;49.920;18.730;2024-02-23T03:48:17;2.97;;;1.67;;
42514;SDS011;28144;49.920;18.730;2024-02-23T03:50:42;4.00;;;1.70;;
42514;SDS011;28144;49.920;18.730;2024-02-23T03:53:08;1.33;;;1.07;;
42514;SDS011;28144;49.920;18.730;2024-02-23T03:55:34;1.97;;;1.40;;
42514;SDS011;28144;49.920;18.730;2024-02-23T03:57:59;5.27;;;3.07;;
42514;SDS011;28144;49.920;18.730;2024-02-23T04:00:25;3.40;;;1.30;;
42514;SDS011;28144;49.920;18.730;2024-02-23T04:02:51;2.28;;;1.50;;
42514;SDS011;28144;49.920;18.730;2024-02-23T04:05:17;1.67;;;1.33;;
42514;SDS011;28144;49.920;18.730;2024-02-23T04:07:44;1.90;;;1.50;;
42514;SDS011;28144;49.920;18.730;2024-02-23T04:10:10;2.07;;;1.70;;
42514;SDS011;28144;49.920;18.730;2024-02-23T04:12:35;2.23;;;1.17;;
42514;SDS011;28144;49.920;18.730;2024-02-23T04:15:01;2.90;;;1.47;;
42514;SDS011;28144;49.920;18.730;2024-02-23T04:17:27;2.42;;;1.50;;
42514;SDS011;28144;49.920;18.730;2024-02-23T04:19:53;1.90;;;1.23;;
42514;SDS011;28144;49.920;18.730;2024-02-23T04:22:19;3.33;;;1.50;;
42514;SDS011;28144;49.920;18.730;2024-02-23T04:24:44;1.90;;;1.30;;
42514;SDS011;28144;49.920;18.730;2024-02-23T04:27:10;2.87;;;1.80;;
42514;SDS011;28144;49.920;18.730;2024-02-23T04:29:36;3.47;;;2.53;;
42514;SDS011;28144;49.920;18.730;2024-02-23T04:32:02;3.47;;;1.70;;
42514;SDS011;28144;49.920;18.730;2024-02-23T04:34:28;2.33;;;1.10;;
42514;SDS011;28144;49.920;18.730;2024-02-23T04:36:54;2.25;;;1.27;;
42514;SDS011;28144;49.920;18.730;2024-02-23T04:39:20;1.83;;;1.10;;
42514;SDS011;28144;49.920;18.730;2024-02-23T04:41:48;2.13;;;0.90;;
42514;SDS011;28144;49.920;18.730;2024-02-23T04:44:13;1.67;;;1.07;;
42514;SDS011;28144;49.920;18.730;2024-02-23T04:46:39;2.83;;;1.47;;
42514;SDS011;28144;49.920;18.730;2024-02-23T04:49:05;2.53;;;1.30;;
42514;SDS011;28144;49.920;18.730;2024-02-23T04:51:31;1.73;;;1.03;;
42514;SDS011;28144;49.920;18.730;2024-02-23T04:53:56;2.37;;;0.93;;
42514;SDS011;28144;49.920;18.730;2024-02-23T04:56:22;1.63;;;1.47;;
42514;SDS011;28144;49.920;18.730;2024-02-23T04:58:48;1.77;;;1.17;;
42514;SDS011;28144;49.920;18.730;2024-02-23T05:01:14;2.25;;;1.20;;
42514;SDS011;28144;49.920;18.730;2024-02-23T05:03:39;1.30;;;0.87;;
42514;SDS011;28144;49.920;18.730;2024-02-23T05:06:05;2.37;;;1.20;;
42514;SDS011;28144;49.920;18.730;2024-02-23T05:08:31;3.07;;;1.10;;
42514;SDS011;28144;49.920;18.730;2024-02-23T05:10:58;3.90;;;2.63;;
42514;SDS011;28144;49.920;18.730;2024-02-23T05:13:23;2.75;;;1.90;;
42514;SDS011;28144;49.920;18.730;2024-02-23T05:15:50;2.75;;;1.35;;
42514;SDS011;28144;49.920;18.730;2024-02-23T05:18:15;2.20;;;1.60;;
42514;SDS011;28144;49.920;18.730;2024-02-23T05:20:41;3.47;;;2.05;;
42514;SDS011;28144;49.920;18.730;2024-02-23T05:23:07;4.03;;;1.83;;
42514;SDS011;28144;49.920;18.730;2024-02-23T05:25:34;2.80;;;1.58;;
42514;SDS011;28144;49.920;18.730;2024-02-23T05:27:59;0.80;;;0.70;;
42514;SDS011;28144;49.920;18.730;2024-02-23T05:30:25;2.17;;;1.40;;
42514;SDS011;28144;49.920;18.730;2024-02-23T05:32:52;2.78;;;0.98;;
42514;SDS011;28144;49.920;18.730;2024-02-23T05:35:18;1.20;;;0.80;;
42514;SDS011;28144;49.920;18.730;2024-02-23T05:37:44;2.43;;;1.67;;
42514;SDS011;28144;49.920;18.730;2024-02-23T05:40:10;1.60;;;1.17;;
42514;SDS011;28144;49.920;18.730;2024-02-23T05:42:36;1.83;;;1.00;;
42514;SDS011;28144;49.920;18.730;2024-02-23T05:45:02;2.65;;;1.23;;
42514;SDS011;28144;49.920;18.730;2024-02-23T05:47:37;2.23;;;1.30;;
42514;SDS011;28144;49.920;18.730;2024-02-23T05:50:04;2.70;;;1.70;;
42514;SDS011;28144;49.920;18.730;2024-02-23T05:52:33;2.55;;;1.30;;
42514;SDS011;28144;49.920;18.730;2024-02-23T05:54:59;2.80;;;2.00;;
42514;SDS011;28144;49.920;18.730;2024-02-23T05:57:26;1.48;;;1.08;;
42514;SDS011;28144;49.920;18.730;2024-02-23T06:02:18;1.20;;;0.80;;
42514;SDS011;28144;49.920;18.730;2024-02-23T06:04:44;2.63;;;0.80;;
42514;SDS011;28144;49.920;18.730;2024-02-23T06:07:10;2.10;;;1.40;;
42514;SDS011;28144;49.920;18.730;2024-02-23T06:09:36;1.13;;;0.87;;
42514;SDS011;28144;49.920;18.730;2024-02-23T06:12:04;3.33;;;1.17;;
42514;SDS011;28144;49.920;18.730;2024-02-23T06:14:31;2.37;;;1.03;;
42514;SDS011;28144;49.920;18.730;2024-02-23T06:16:57;2.50;;;1.40;;
42514;SDS011;28144;49.920;18.730;2024-02-23T06:19:23;2.47;;;0.97;;
42514;SDS011;28144;49.920;18.730;2024-02-23T06:21:49;2.88;;;1.10;;
42514;SDS011;28144;49.920;18.730;2024-02-23T06:24:18;4.38;;;1.20;;
42514;SDS011;28144;49.920;18.730;2024-02-23T06:26:45;4.30;;;2.10;;
42514;SDS011;28144;49.920;18.730;2024-02-23T06:29:12;4.17;;;1.53;;
42514;SDS011;28144;49.920;18.730;2024-02-23T06:31:39;5.27;;;3.00;;
42514;SDS011;28144;49.920;18.730;2024-02-23T06:34:05;3.38;;;1.40;;
42514;SDS011;28144;49.920;18.730;2024-02-23T06:36:31;2.13;;;1.20;;
42514;SDS011;28144;49.920;18.730;2024-02-23T06:38:57;2.50;;;1.50;;
42514;SDS011;28144;49.920;18.730;2024-02-23T06:41:23;2.43;;;1.43;;
42514;SDS011;28144;49.920;18.730;2024-02-23T06:43:49;2.63;;;1.63;;
42514;SDS011;28144;49.920;18.730;2024-02-23T06:46:14;1.70;;;1.17;;
42514;SDS011;28144;49.920;18.730;2024-02-23T06:48:40;3.13;;;1.60;;
42514;SDS011;28144;49.920;18.730;2024-02-23T06:51:06;2.57;;;1.83;;
42514;SDS011;28144;49.920;18.730;2024-02-23T06:53:36;2.17;;;1.30;;
42514;SDS011;28144;49.920;18.730;2024-02-23T06:56:03;5.30;;;2.38;;
42514;SDS011;28144;49.920;18.730;2024-02-23T06:58:29;6.85;;;3.30;;
42514;SDS011;28144;49.920;18.730;2024-02-23T07:00:55;9.37;;;4.60;;
42514;SDS011;28144;49.920;18.730;2024-02-23T07:03:21;9.97;;;5.03;;
42514;SDS011;28144;49.920;18.730;2024-02-23T07:05:46;10.37;;;4.70;;
42514;SDS011;28144;49.920;18.730;2024-02-23T07:08:13;14.23;;;5.32;;
42514;SDS011;28144;49.920;18.730;2024-02-23T07:10:39;10.53;;;5.40;;
42514;SDS011;28144;49.920;18.730;2024-02-23T07:13:05;9.85;;;4.75;;
42514;SDS011;28144;49.920;18.730;2024-02-23T07:15:32;11.57;;;4.65;;
42514;SDS011;28144;49.920;18.730;2024-02-23T07:17:59;9.32;;;4.47;;
42514;SDS011;28144;49.920;18.730;2024-02-23T07:20:24;9.30;;;4.27;;
42514;SDS011;28144;49.920;18.730;2024-02-23T07:22:50;8.23;;;4.03;;
42514;SDS011;28144;49.920;18.730;2024-02-23T07:25:16;13.83;;;10.07;;
42514;SDS011;28144;49.920;18.730;2024-02-23T07:27:43;10.90;;;5.10;;
42514;SDS011;28144;49.920;18.730;2024-02-23T07:32:36;8.00;;;4.72;;
42514;SDS011;28144;49.920;18.730;2024-02-23T07:35:02;10.37;;;5.40;;
42514;SDS011;28144;49.920;18.730;2024-02-23T07:37:29;10.83;;;5.10;;
42514;SDS011;28144;49.920;18.730;2024-02-23T07:39:55;12.47;;;5.60;;
42514;SDS011;28144;49.920;18.730;2024-02-23T07:42:21;8.48;;;5.25;;
42514;SDS011;28144;49.920;18.730;2024-02-23T07:44:47;11.27;;;4.80;;
42514;SDS011;28144;49.920;18.730;2024-02-23T07:47:13;10.93;;;4.97;;
42514;SDS011;28144;49.920;18.730;2024-02-23T07:49:38;7.43;;;4.63;;
42514;SDS011;28144;49.920;18.730;2024-02-23T07:52:06;9.43;;;5.50;;
42514;SDS011;28144;49.920;18.730;2024-02-23T07:54:35;9.13;;;4.93;;
42514;SDS011;28144;49.920;18.730;2024-02-23T07:57:01;8.20;;;4.13;;
42514;SDS011;28144;49.920;18.730;2024-02-23T07:59:29;7.37;;;4.17;;
42514;SDS011;28144;49.920;18.730;2024-02-23T08:01:55;7.07;;;3.80;;
42514;SDS011;28144;49.920;18.730;2024-02-23T08:04:21;7.33;;;4.27;;
42514;SDS011;28144;49.920;18.730;2024-02-23T08:06:47;4.93;;;3.33;;
42514;SDS011;28144;49.920;18.730;2024-02-23T08:09:14;6.95;;;3.60;;
42514;SDS011;28144;49.920;18.730;2024-02-23T08:11:40;8.48;;;5.30;;
42514;SDS011;28144;49.920;18.730;2024-02-23T08:14:05;8.60;;;4.10;;
42514;SDS011;28144;49.920;18.730;2024-02-23T08:16:32;10.95;;;5.20;;
42514;SDS011;28144;49.920;18.730;2024-02-23T08:18:58;11.48;;;4.22;;
42514;SDS011;28144;49.920;18.730;2024-02-23T08:21:24;8.38;;;3.58;;
42514;SDS011;28144;49.920;18.730;2024-02-23T08:23:51;11.60;;;4.90;;
42514;SDS011;28144;49.920;18.730;2024-02-23T08:26:18;5.95;;;3.53;;
42514;SDS011;28144;49.920;18.730;2024-02-23T08:28:43;6.37;;;3.13;;
42514;SDS011;28144;49.920;18.730;2024-02-23T08:31:09;6.10;;;3.55;;
42514;SDS011;28144;49.920;18.730;2024-02-23T08:33:35;5.80;;;3.53;;
42514;SDS011;28144;49.920;18.730;2024-02-23T08:36:01;4.22;;;2.35;;
42514;SDS011;28144;49.920;18.730;2024-02-23T08:38:31;3.73;;;1.90;;
42514;SDS011;28144;49.920;18.730;2024-02-23T08:40:58;3.97;;;2.00;;
42514;SDS011;28144;49.920;18.730;2024-02-23T08:43:24;5.55;;;2.30;;
42514;SDS011;28144;49.920;18.730;2024-02-23T08:45:50;3.93;;;2.17;;
42514;SDS011;28144;49.920;18.730;2024-02-23T08:48:16;6.95;;;2.72;;
42514;SDS011;28144;49.920;18.730;2024-02-23T08:50:42;7.47;;;2.88;;
42514;SDS011;28144;49.920;18.730;2024-02-23T08:53:08;9.00;;;3.37;;
42514;SDS011;28144;49.920;18.730;2024-02-23T08:55:34;7.32;;;3.53;;
42514;SDS011;28144;49.920;18.730;2024-02-23T08:58:00;7.73;;;3.97;;
42514;SDS011;28144;49.920;18.730;2024-02-23T09:00:25;5.13;;;3.10;;
42514;SDS011;28144;49.920;18.730;2024-02-23T09:02:51;4.37;;;2.23;;
42514;SDS011;28144;49.920;18.730;2024-02-23T09:05:17;4.33;;;2.30;;
42514;SDS011;28144;49.920;18.730;2024-02-23T09:07:43;4.07;;;2.33;;
42514;SDS011;28144;49.920;18.730;2024-02-23T09:10:10;5.00;;;2.60;;
42514;SDS011;28144;49.920;18.730;2024-02-23T09:12:37;4.82;;;2.47;;
42514;SDS011;28144;49.920;18.730;2024-02-23T09:15:03;3.53;;;2.30;;
42514;SDS011;28144;49.920;18.730;2024-02-23T09:17:30;5.37;;;3.33;;
42514;SDS011;28144;49.920;18.730;2024-02-23T09:19:56;4.05;;;2.50;;
42514;SDS011;28144;49.920;18.730;2024-02-23T09:22:22;4.30;;;2.30;;
42514;SDS011;28144;49.920;18.730;2024-02-23T09:24:48;3.75;;;2.20;;
42514;SDS011;28144;49.920;18.730;2024-02-23T09:27:13;3.90;;;2.33;;
42514;SDS011;28144;49.920;18.730;2024-02-23T09:29:40;3.30;;;1.50;;
42514;SDS011;28144;49.920;18.730;2024-02-23T09:32:06;3.92;;;2.03;;
42514;SDS011;28144;49.920;18.730;2024-02-23T09:34:32;4.22;;;1.92;;
42514;SDS011;28144;49.920;18.730;2024-02-23T09:36:58;3.27;;;1.57;;
42514;SDS011;28144;49.920;18.730;2024-02-23T09:39:24;3.33;;;1.73;;
42514;SDS011;28144;49.920;18.730;2024-02-23T09:41:51;2.93;;;1.70;;
42514;SDS011;28144;49.920;18.730;2024-02-23T09:44:19;6.23;;;3.43;;
42514;SDS011;28144;49.920;18.730;2024-02-23T09:46:47;3.40;;;1.60;;
42514;SDS011;28144;49.920;18.730;2024-02-23T09:49:14;3.47;;;2.08;;
42514;SDS011;28144;49.920;18.730;2024-02-23T09:51:40;4.30;;;2.30;;
42514;SDS011;28144;49.920;18.730;2024-02-23T09:54:06;2.60;;;1.60;;
42514;SDS011;28144;49.920;18.730;2024-02-23T09:56:32;4.93;;;2.47;;
42514;SDS011;28144;49.920;18.730;2024-02-23T09:59:00;3.37;;;1.77;;
42514;SDS011;28144;49.920;18.730;2024-02-23T10:01:28;6.00;;;2.23;;
42514;SDS011;28144;49.920;18.730;2024-02-23T10:03:59;3.23;;;1.53;;
42514;SDS011;28144;49.920;18.730;2024-02-23T10:06:26;5.90;;;2.30;;
42514;SDS011;28144;49.920;18.730;2024-02-23T10:08:53;9.17;;;2.50;;
42514;SDS011;28144;49.920;18.730;2024-02-23T10:11:21;16.13;;;3.60;;
42514;SDS011;28144;49.920;18.730;2024-02-23T10:13:48;11.23;;;3.22;;
42514;SDS011;28144;49.920;18.730;2024-02-23T10:16:17;10.23;;;2.87;;
42514;SDS011;28144;49.920;18.730;2024-02-23T10:18:49;7.20;;;2.70;;
42514;SDS011;28144;49.920;18.730;2024-02-23T10:21:18;6.07;;;2.00;;
42514;SDS011;28144;49.920;18.730;2024-02-23T10:23:44;4.00;;;2.13;;
42514;SDS011;28144;49.920;18.730;2024-02-23T10:26:10;5.00;;;2.38;;
42514;SDS011;28144;49.920;18.730;2024-02-23T10:28:39;5.07;;;2.45;;
42514;SDS011;28144;49.920;18.730;2024-02-23T10:31:05;11.50;;;3.53;;
42514;SDS011;28144;49.920;18.730;2024-02-23T10:33:31;9.93;;;3.42;;
42514;SDS011;28144;49.920;18.730;2024-02-23T10:35:57;11.73;;;3.60;;
42514;SDS011;28144;49.920;18.730;2024-02-23T10:38:23;22.45;;;5.30;;
42514;SDS011;28144;49.920;18.730;2024-02-23T10:40:50;8.68;;;2.42;;
42514;SDS011;28144;49.920;18.730;2024-02-23T10:43:17;7.33;;;2.13;;
42514;SDS011;28144;49.920;18.730;2024-02-23T10:45:46;2.80;;;1.60;;
42514;SDS011;28144;49.920;18.730;2024-02-23T10:48:12;3.97;;;1.40;;
42514;SDS011;28144;49.920;18.730;2024-02-23T10:50:39;6.37;;;2.27;;
42514;SDS011;28144;49.920;18.730;2024-02-23T10:53:07;6.40;;;2.40;;
42514;SDS011;28144;49.920;18.730;2024-02-23T10:55:36;6.50;;;2.00;;
42514;SDS011;28144;49.920;18.730;2024-02-23T10:58:04;17.30;;;3.80;;
42514;SDS011;28144;49.920;18.730;2024-02-23T11:00:34;19.63;;;5.30;;
42514;SDS011;28144;49.920;18.730;2024-02-23T11:03:00;12.77;;;2.63;;
42514;SDS011;28144;49.920;18.730;2024-02-23T11:05:26;8.65;;;2.70;;
42514;SDS011;28144;49.920;18.730;2024-02-23T11:07:55;4.72;;;1.88;;
42514;SDS011;28144;49.920;18.730;2024-02-23T11:10:22;5.87;;;2.23;;
42514;SDS011;28144;49.920;18.730;2024-02-23T11:13:02;6.67;;;2.87;;
42514;SDS011;28144;49.920;18.730;2024-02-23T11:15:32;7.57;;;2.67;;
42514;SDS011;28144;49.920;18.730;2024-02-23T11:18:20;6.53;;;2.70;;
42514;SDS011;28144;49.920;18.730;2024-02-23T11:20:53;10.60;;;5.20;;
42514;SDS011;28144;49.920;18.730;2024-02-23T11:23:19;12.03;;;5.27;;
42514;SDS011;28144;49.920;18.730;2024-02-23T11:29:26;20.43;;;7.97;;
42514;SDS011;28144;49.920;18.730;2024-02-23T11:31:58;7.20;;;3.50;;
42514;SDS011;28144;49.920;18.730;2024-02-23T11:34:29;8.17;;;3.20;;
42514;SDS011;28144;49.920;18.730;2024-02-23T11:36:55;4.75;;;2.42;;
42514;SDS011;28144;49.920;18.730;2024-02-23T11:39:23;5.40;;;2.33;;
42514;SDS011;28144;49.920;18.730;2024-02-23T11:41:49;7.05;;;3.08;;
42514;SDS011;28144;49.920;18.730;2024-02-23T11:44:15;10.23;;;3.07;;
42514;SDS011;28144;49.920;18.730;2024-02-23T11:46:43;4.03;;;2.07;;
42514;SDS011;28144;49.920;18.730;2024-02-23T11:49:10;5.23;;;2.00;;
42514;SDS011;28144;49.920;18.730;2024-02-23T11:51:36;3.70;;;1.90;;
42514;SDS011;28144;49.920;18.730;2024-02-23T11:54:02;3.07;;;1.70;;
42514;SDS011;28144;49.920;18.730;2024-02-23T11:56:29;3.97;;;2.05;;
42514;SDS011;28144;49.920;18.730;2024-02-23T11:58:55;4.18;;;1.90;;
42514;SDS011;28144;49.920;18.730;2024-02-23T12:01:21;4.55;;;2.40;;
42514;SDS011;28144;49.920;18.730;2024-02-23T12:03:47;3.58;;;2.13;;
42514;SDS011;28144;49.920;18.730;2024-02-23T12:06:14;9.97;;;3.80;;
42514;SDS011;28144;49.920;18.730;2024-02-23T12:08:43;21.37;;;6.97;;
42514;SDS011;28144;49.920;18.730;2024-02-23T12:11:11;13.93;;;5.53;;
42514;SDS011;28144;49.920;18.730;2024-02-23T12:13:39;18.87;;;6.93;;
42514;SDS011;28144;49.920;18.730;2024-02-23T12:16:07;20.07;;;7.70;;
42514;SDS011;28144;49.920;18.730;2024-02-23T12:21:00;16.13;;;5.30;;
42514;SDS011;28144;49.920;18.730;2024-02-23T12:23:42;10.70;;;4.40;;
42514;SDS011;28144;49.920;18.730;2024-02-23T12:26:09;15.97;;;6.83;;
42514;SDS011;28144;49.920;18.730;2024-02-23T12:28:35;16.67;;;5.53;;
42514;SDS011;28144;49.920;18.730;2024-02-23T12:31:02;16.88;;;6.53;;
42514;SDS011;28144;49.920;18.730;2024-02-23T12:33:32;8.35;;;3.03;;
42514;SDS011;28144;49.920;18.730;2024-02-23T12:36:02;4.55;;;3.10;;
42514;SDS011;28144;49.920;18.730;2024-02-23T12:38:29;4.97;;;3.27;;
42514;SDS011;28144;49.920;18.730;2024-02-23T12:40:55;4.55;;;2.25;;
42514;SDS011;28144;49.920;18.730;2024-02-23T12:43:21;5.80;;;2.53;;
42514;SDS011;28144;49.920;18.730;2024-02-23T12:45:56;6.30;;;2.50;;
42514;SDS011;28144;49.920;18.730;2024-02-23T12:48:22;6.83;;;2.20;;
42514;SDS011;28144;49.920;18.730;2024-02-23T12:50:48;4.03;;;2.17;;
42514;SDS011;28144;49.920;18.730;2024-02-23T12:53:31;5.07;;;2.85;;
42514;SDS011;28144;49.920;18.730;2024-02-23T12:56:02;6.77;;;3.47;;
42514;SDS011;28144;49.920;18.730;2024-02-23T13:00:55;6.78;;;3.08;;
42514;SDS011;28144;49.920;18.730;2024-02-23T13:03:22;5.70;;;3.17;;
42514;SDS011;28144;49.920;18.730;2024-02-23T13:05:48;11.13;;;3.42;;
42514;SDS011;28144;49.920;18.730;2024-02-23T13:08:14;6.80;;;3.45;;
42514;SDS011;28144;49.920;18.730;2024-02-23T13:10:42;6.80;;;2.77;;
42514;SDS011;28144;49.920;18.730;2024-02-23T13:13:09;9.65;;;3.55;;
42514;SDS011;28144;49.920;18.730;2024-02-23T13:15:36;14.13;;;5.53;;
42514;SDS011;28144;49.920;18.730;2024-02-23T13:18:05;16.05;;;6.07;;
42514;SDS011;28144;49.920;18.730;2024-02-23T13:20:31;7.78;;;3.70;;
42514;SDS011;28144;49.920;18.730;2024-02-23T13:22:57;9.70;;;3.80;;
42514;SDS011;28144;49.920;18.730;2024-02-23T13:25:23;8.13;;;3.35;;
42514;SDS011;28144;49.920;18.730;2024-02-23T13:27:49;7.20;;;3.20;;
42514;SDS011;28144;49.920;18.730;2024-02-23T13:30:15;6.00;;;3.40;;
42514;SDS011;28144;49.920;18.730;2024-02-23T13:32:40;7.13;;;3.10;;
42514;SDS011;28144;49.920;18.730;2024-02-23T13:35:07;9.98;;;4.40;;
42514;SDS011;28144;49.920;18.730;2024-02-23T13:40:00;17.05;;;6.70;;
42514;SDS011;28144;49.920;18.730;2024-02-23T13:42:26;10.77;;;5.45;;
42514;SDS011;28144;49.920;18.730;2024-02-23T13:44:52;8.52;;;4.22;;
42514;SDS011;28144;49.920;18.730;2024-02-23T13:47:18;12.97;;;5.33;;
42514;SDS011;28144;49.920;18.730;2024-02-23T13:49:44;13.80;;;5.88;;
42514;SDS011;28144;49.920;18.730;2024-02-23T13:52:10;23.02;;;9.30;;
42514;SDS011;28144;49.920;18.730;2024-02-23T13:54:38;15.70;;;7.40;;
42514;SDS011;28144;49.920;18.730;2024-02-23T13:57:04;16.47;;;7.80;;
42514;SDS011;28144;49.920;18.730;2024-02-23T13:59:31;18.98;;;9.30;;
42514;SDS011;28144;49.920;18.730;2024-02-23T14:01:57;21.87;;;10.87;;
42514;SDS011;28144;49.920;18.730;2024-02-23T14:04:23;19.00;;;8.35;;
42514;SDS011;28144;49.920;18.730;2024-02-23T14:10:30;10.30;;;4.70;;
42514;SDS011;28144;49.920;18.730;2024-02-23T14:12:57;8.63;;;4.20;;
42514;SDS011;28144;49.920;18.730;2024-02-23T14:15:22;10.98;;;4.43;;
42514;SDS011;28144;49.920;18.730;2024-02-23T14:17:48;10.57;;;4.32;;
42514;SDS011;28144;49.920;18.730;2024-02-23T14:20:15;8.27;;;4.20;;
42514;SDS011;28144;49.920;18.730;2024-02-23T14:22:41;7.38;;;3.55;;
42514;SDS011;28144;49.920;18.730;2024-02-23T14:25:07;6.03;;;3.07;;
42514;SDS011;28144;49.920;18.730;2024-02-23T14:27:33;8.05;;;3.83;;
42514;SDS011;28144;49.920;18.730;2024-02-23T14:29:59;6.63;;;3.73;;
42514;SDS011;28144;49.920;18.730;2024-02-23T14:32:25;10.25;;;4.00;;
42514;SDS011;28144;49.920;18.730;2024-02-23T14:34:51;10.68;;;4.80;;
42514;SDS011;28144;49.920;18.730;2024-02-23T14:37:17;5.40;;;3.05;;
42514;SDS011;28144;49.920;18.730;2024-02-23T14:39:43;9.83;;;3.17;;
42514;SDS011;28144;49.920;18.730;2024-02-23T14:42:09;8.20;;;3.33;;
42514;SDS011;28144;49.920;18.730;2024-02-23T14:44:35;6.60;;;2.87;;
42514;SDS011;28144;49.920;18.730;2024-02-23T14:47:02;9.57;;;4.35;;
42514;SDS011;28144;49.920;18.730;2024-02-23T14:51:54;10.43;;;3.78;;
42514;SDS011;28144;49.920;18.730;2024-02-23T14:54:20;8.30;;;3.67;;
42514;SDS011;28144;49.920;18.730;2024-02-23T14:56:46;7.63;;;4.25;;
42514;SDS011;28144;49.920;18.730;2024-02-23T14:59:12;5.70;;;3.00;;